Time;durP1;ratioP1;P1;durP2;ratioP2;P2;SDS_P1;SDS_P2;PMS_P1;PMS_P2;Temp;Humidity;BMP_temperature;BMP_pressure;BME280_temperature;BME280_humidity;BME280_pressure;Samples;Min_cycle;Max_cycle;Signal;HPM_P1;HPM_P2
2021/09/09 00:00:27;;;;;;;5.07;4.63;;;15.30;90.10;;;;;;6187302;28;20482;-60
2021/09/09 00:03:30;;;;;;;5.20;4.70;;;15.30;90.20;;;;;;6185872;28;20495;-62
2021/09/09 00:06:34;;;;;;;7.07;4.77;;;15.30;90.20;;;;;;6187419;28;20484;-59
2021/09/09 00:09:37;;;;;;;5.00;4.57;;;15.30;90.30;;;;;;6195253;28;20815;-60
2021/09/09 00:12:41;;;;;;;6.43;4.70;;;15.30;90.40;;;;;;6193795;28;20807;-60
2021/09/09 00:15:45;;;;;;;4.77;4.30;;;15.30;90.50;;;;;;6182760;28;20496;-60
2021/09/09 00:18:48;;;;;;;7.13;4.37;;;15.20;90.60;;;;;;6192850;28;20478;-60
2021/09/09 00:21:51;;;;;;;4.90;4.27;;;15.20;90.70;;;;;;6179066;28;21000;-60
2021/09/09 00:24:54;;;;;;;6.80;5.47;;;15.20;90.60;;;;;;6175567;28;20478;-60
2021/09/09 00:27:59;;;;;;;4.60;4.20;;;15.20;90.80;;;;;;6176627;28;20485;-60
2021/09/09 00:31:02;;;;;;;6.00;4.77;;;15.10;90.90;;;;;;6176881;28;20978;-61
2021/09/09 00:34:05;;;;;;;4.77;4.20;;;15.00;91.10;;;;;;6197286;28;20484;-60
2021/09/09 00:37:08;;;;;;;6.47;4.57;;;15.10;91.30;;;;;;6196315;28;20493;-60
2021/09/09 00:40:12;;;;;;;5.40;4.00;;;15.00;91.30;;;;;;6183719;28;20499;-60
2021/09/09 00:43:17;;;;;;;4.63;4.20;;;15.10;91.60;;;;;;6201107;28;20484;-60
2021/09/09 00:46:23;;;;;;;5.20;4.70;;;15.10;91.60;;;;;;6200816;28;20477;-60
2021/09/09 00:49:27;;;;;;;6.10;4.97;;;15.00;91.60;;;;;;6200499;28;20635;-60
2021/09/09 00:52:30;;;;;;;5.80;4.80;;;15.00;91.70;;;;;;6200620;28;20484;-60
2021/09/09 00:55:33;;;;;;;5.30;4.60;;;15.00;91.80;;;;;;6200986;28;20484;-60
2021/09/09 00:58:41;;;;;;;5.17;4.67;;;15.00;91.80;;;;;;6201187;28;21084;-60
2021/09/09 01:01:44;;;;;;;4.40;3.60;;;15.00;91.90;;;;;;6200559;28;20550;-60
2021/09/09 01:04:49;;;;;;;5.53;5.03;;;14.90;92.00;;;;;;6200833;28;20479;-60
2021/09/09 01:07:52;;;;;;;5.53;5.00;;;14.90;92.00;;;;;;6201342;28;20481;-60
2021/09/09 01:10:55;;;;;;;5.90;5.40;;;14.90;92.30;;;;;;6200635;28;20507;-60
2021/09/09 01:14:07;;;;;;;5.17;4.60;;;14.90;92.30;;;;;;6200681;28;20951;-60
2021/09/09 01:17:10;;;;;;;6.30;4.67;;;14.90;92.40;;;;;;6200727;28;20437;-60
2021/09/09 01:20:14;;;;;;;4.93;4.53;;;14.80;92.60;;;;;;6201304;28;20546;-60
2021/09/09 01:23:18;;;;;;;8.70;5.87;;;14.80;92.70;;;;;;6200910;28;20460;-60
2021/09/09 01:26:23;;;;;;;6.93;6.10;;;14.70;92.80;;;;;;6201229;28;20445;-60
2021/09/09 01:29:28;;;;;;;8.47;7.60;;;14.60;93.10;;;;;;6200759;28;20445;-60
2021/09/09 01:32:31;;;;;;;10.07;9.17;;;14.60;93.40;;;;;;6180755;28;20466;-60
2021/09/09 01:35:34;;;;;;;9.50;8.60;;;14.50;93.50;;;;;;6176668;28;20477;-60
2021/09/09 01:38:37;;;;;;;8.63;7.77;;;14.50;93.80;;;;;;6180771;28;20512;-60
2021/09/09 01:41:42;;;;;;;7.50;6.80;;;14.40;93.90;;;;;;6181067;28;20954;-60
2021/09/09 01:44:45;;;;;;;6.50;5.90;;;14.30;94.10;;;;;;6180795;28;20514;-60
2021/09/09 01:47:48;;;;;;;6.90;5.83;;;14.30;94.30;;;;;;6180846;28;20472;-59
2021/09/09 01:50:51;;;;;;;6.63;6.00;;;14.20;94.20;;;;;;6180664;28;20492;-61
2021/09/09 01:53:55;;;;;;;6.50;6.00;;;14.20;94.70;;;;;;6180814;28;20484;-60
2021/09/09 01:56:59;;;;;;;6.93;5.33;;;14.10;94.90;;;;;;6180885;28;20484;-60
2021/09/09 02:00:04;;;;;;;6.07;5.47;;;14.10;95.00;;;;;;6180161;28;20485;-61
2021/09/09 02:03:08;;;;;;;6.57;5.50;;;14.20;95.00;;;;;;6179849;28;20489;-60
2021/09/09 02:06:11;;;;;;;5.93;4.83;;;14.20;94.90;;;;;;6179934;28;20480;-60
2021/09/09 02:09:15;;;;;;;5.20;4.70;;;14.20;95.30;;;;;;6180079;28;20469;-59
2021/09/09 02:12:20;;;;;;;6.33;4.40;;;14.20;94.90;;;;;;6179665;28;20533;-60
2021/09/09 02:15:23;;;;;;;5.73;5.23;;;14.20;95.00;;;;;;6180349;28;20469;-60
2021/09/09 02:18:26;;;;;;;6.57;5.13;;;14.20;94.90;;;;;;6179627;28;20493;-60
2021/09/09 02:21:29;;;;;;;5.70;4.90;;;14.20;95.00;;;;;;6179870;28;20478;-60
2021/09/09 02:24:32;;;;;;;4.70;4.30;;;14.20;95.20;;;;;;6179876;28;20470;-60
2021/09/09 02:27:37;;;;;;;5.03;4.50;;;14.10;95.20;;;;;;6179808;28;20482;-60
2021/09/09 02:30:41;;;;;;;5.50;5.00;;;14.10;95.30;;;;;;6179915;28;20500;-61
2021/09/09 02:33:44;;;;;;;7.20;5.50;;;14.10;95.40;;;;;;6180090;28;20485;-60
2021/09/09 02:36:47;;;;;;;5.63;5.10;;;14.10;95.40;;;;;;6179588;28;20474;-60
2021/09/09 02:39:50;;;;;;;5.80;5.20;;;14.10;95.40;;;;;;6179316;28;20482;-60
2021/09/09 02:42:55;;;;;;;7.17;4.77;;;14.10;95.50;;;;;;6179076;28;20502;-60
2021/09/09 02:45:58;;;;;;;4.77;4.37;;;14.10;95.50;;;;;;6179775;28;20473;-60
2021/09/09 02:49:02;;;;;;;7.13;5.30;;;14.10;95.60;;;;;;6179216;28;20801;-60
2021/09/09 02:52:05;;;;;;;5.23;4.80;;;14.10;95.70;;;;;;6179652;28;20551;-61
2021/09/09 02:55:10;;;;;;;5.40;5.00;;;14.10;95.70;;;;;;6179196;28;20500;-61
2021/09/09 02:58:14;;;;;;;7.80;6.17;;;14.10;95.70;;;;;;6179239;28;20478;-60
2021/09/09 03:01:18;;;;;;;5.67;4.20;;;14.10;95.80;;;;;;6178989;28;20962;-60
2021/09/09 03:04:21;;;;;;;9.17;5.10;;;14.00;95.70;;;;;;6179259;28;20553;-61
2021/09/09 03:07:24;;;;;;;7.10;4.17;;;13.90;95.90;;;;;;6179344;28;20466;-61
2021/09/09 03:10:27;;;;;;;4.83;4.37;;;13.80;96.00;;;;;;6169905;28;20474;-61
2021/09/09 03:13:32;;;;;;;5.10;4.60;;;13.80;96.30;;;;;;6178848;28;20480;-62
2021/09/09 03:16:35;;;;;;;5.67;5.17;;;13.80;96.30;;;;;;6178574;28;20474;-61
2021/09/09 03:19:38;;;;;;;4.97;4.57;;;13.80;96.40;;;;;;6178817;28;20966;-60
2021/09/09 03:22:42;;;;;;;5.77;5.20;;;13.70;96.50;;;;;;6178689;28;20482;-60
2021/09/09 03:25:45;;;;;;;5.00;4.60;;;13.70;96.60;;;;;;6178649;28;20514;-61
2021/09/09 03:28:49;;;;;;;5.10;4.60;;;13.70;96.70;;;;;;6178761;28;20820;-61
2021/09/09 03:31:52;;;;;;;6.00;5.43;;;13.70;96.80;;;;;;6179191;28;20813;-60
2021/09/09 03:34:56;;;;;;;4.97;4.57;;;13.60;96.80;;;;;;6181316;28;20556;-60
2021/09/09 03:37:59;;;;;;;5.87;5.17;;;13.60;96.90;;;;;;6202586;28;20488;-60
2021/09/09 03:41:02;;;;;;;5.90;5.40;;;13.60;97.10;;;;;;6202193;28;20492;-61
2021/09/09 03:44:07;;;;;;;10.30;5.90;;;13.60;97.00;;;;;;6202350;28;20984;-61
2021/09/09 03:47:10;;;;;;;5.70;5.10;;;13.50;97.00;;;;;;6202593;28;20464;-60
2021/09/09 03:50:13;;;;;;;6.60;5.50;;;13.50;97.50;;;;;;6202565;28;20473;-61
2021/09/09 03:53:16;;;;;;;5.70;4.87;;;13.50;97.30;;;;;;6202699;28;20455;-62
2021/09/09 03:56:19;;;;;;;8.37;6.00;;;13.50;97.30;;;;;;6202560;28;20924;-60
2021/09/09 03:59:24;;;;;;;5.77;4.83;;;13.50;97.40;;;;;;6201849;28;20449;-61
2021/09/09 04:02:27;;;;;;;5.50;4.70;;;13.40;97.60;;;;;;6201818;28;20473;-60
2021/09/09 04:05:31;;;;;;;5.40;4.90;;;13.30;97.70;;;;;;6201825;28;20788;-61
2021/09/09 04:08:34;;;;;;;6.03;5.43;;;13.20;97.90;;;;;;6202196;28;20461;-60
2021/09/09 04:11:37;;;;;;;6.00;5.40;;;13.20;98.20;;;;;;6198134;28;20461;-61
2021/09/09 04:14:42;;;;;;;5.03;4.63;;;13.20;98.20;;;;;;6202246;28;20479;-60
2021/09/09 04:17:45;;;;;;;6.97;5.27;;;13.20;98.20;;;;;;6201543;28;20506;-61
2021/09/09 04:20:49;;;;;;;6.23;5.73;;;13.20;98.20;;;;;;6201125;28;20484;-61
2021/09/09 04:23:52;;;;;;;6.33;5.73;;;13.30;98.20;;;;;;6201920;28;20820;-61
2021/09/09 04:26:55;;;;;;;6.60;6.00;;;13.20;98.20;;;;;;6201914;28;20976;-61
2021/09/09 04:30:00;;;;;;;7.50;6.37;;;13.20;98.30;;;;;;6201455;28;20908;-62
2021/09/09 04:33:03;;;;;;;7.43;6.10;;;13.20;98.30;;;;;;6201509;28;20469;-60
2021/09/09 04:36:06;;;;;;;7.20;6.60;;;13.30;98.40;;;;;;6201984;28;20526;-60
2021/09/09 04:39:09;;;;;;;11.03;5.67;;;13.30;98.40;;;;;;6201972;28;20472;-60
2021/09/09 04:42:13;;;;;;;8.53;6.73;;;13.30;98.40;;;;;;6201671;28;20488;-60
2021/09/09 04:45:17;;;;;;;8.57;5.53;;;13.40;98.30;;;;;;6201753;28;20777;-60
2021/09/09 04:48:20;;;;;;;6.13;5.50;;;13.40;98.30;;;;;;6201808;28;20476;-60
2021/09/09 04:51:23;;;;;;;9.70;6.27;;;13.40;98.30;;;;;;6201544;28;20480;-60
2021/09/09 04:54:26;;;;;;;8.00;5.90;;;13.40;98.20;;;;;;6201140;28;20473;-59
2021/09/09 04:57:30;;;;;;;7.67;6.90;;;13.40;98.30;;;;;;6201157;28;20487;-60
2021/09/09 05:00:34;;;;;;;5.73;4.90;;;13.40;98.30;;;;;;6200684;28;20874;-60
2021/09/09 05:03:37;;;;;;;6.30;5.70;;;13.50;98.30;;;;;;6201076;28;20483;-59
2021/09/09 05:06:41;;;;;;;9.60;6.17;;;13.50;98.30;;;;;;6200878;28;20469;-59
2021/09/09 05:09:44;;;;;;;8.83;6.03;;;13.50;98.40;;;;;;6201028;28;20473;-59
2021/09/09 05:12:47;;;;;;;9.27;5.63;;;13.50;98.40;;;;;;6204985;28;20480;-59
2021/09/09 05:15:51;;;;;;;6.27;5.67;;;13.50;98.70;;;;;;6205457;28;20496;-60
2021/09/09 05:18:54;;;;;;;8.77;6.47;;;13.50;98.70;;;;;;6202700;28;20492;-62
2021/09/09 05:21:58;;;;;;;7.60;6.80;;;13.50;98.30;;;;;;6205736;28;20475;-63
2021/09/09 05:25:01;;;;;;;7.53;5.97;;;13.50;98.50;;;;;;6205149;28;20469;-63
2021/09/09 05:28:04;;;;;;;8.67;7.27;;;13.50;98.60;;;;;;6205480;28;20468;-63
2021/09/09 05:31:09;;;;;;;8.73;6.63;;;13.50;98.60;;;;;;6205314;28;20937;-63
2021/09/09 05:34:12;;;;;;;8.97;7.27;;;13.50;98.90;;;;;;6205134;28;20495;-63
2021/09/09 05:37:15;;;;;;;9.40;7.07;;;13.50;98.80;;;;;;6204834;28;20976;-62
2021/09/09 05:40:18;;;;;;;8.97;7.20;;;13.50;98.80;;;;;;6205041;28;20489;-62
2021/09/09 05:43:21;;;;;;;10.73;7.90;;;13.60;98.70;;;;;;6204763;28;20476;-62
2021/09/09 05:46:26;;;;;;;9.30;7.80;;;13.60;98.70;;;;;;6204343;28;20469;-60
2021/09/09 05:49:29;;;;;;;15.27;8.30;;;13.70;98.70;;;;;;6204755;28;20532;-62
2021/09/09 05:52:32;;;;;;;10.23;7.03;;;13.70;98.80;;;;;;6204749;28;20476;-62
2021/09/09 05:55:36;;;;;;;8.83;7.80;;;13.70;98.80;;;;;;6204846;28;20472;-61
2021/09/09 05:58:39;;;;;;;11.20;6.80;;;13.80;98.90;;;;;;6205262;28;20991;-62
2021/09/09 06:01:44;;;;;;;11.20;7.47;;;13.90;98.90;;;;;;6204535;28;20504;-61
2021/09/09 06:04:49;;;;;;;14.63;7.83;;;13.90;98.80;;;;;;6205143;28;20483;-62
2021/09/09 06:07:52;;;;;;;12.23;7.33;;;14.00;98.80;;;;;;6204554;28;20473;-61
2021/09/09 06:10:56;;;;;;;9.40;6.93;;;14.10;98.70;;;;;;6204032;28;20850;-61
2021/09/09 06:13:59;;;;;;;9.47;7.60;;;14.20;98.70;;;;;;6204455;28;20813;-62
2021/09/09 06:17:04;;;;;;;11.73;8.73;;;14.40;98.60;;;;;;6204497;28;20468;-62
2021/09/09 06:20:08;;;;;;;9.93;7.43;;;14.60;98.30;;;;;;6204043;28;20484;-62
2021/09/09 06:23:12;;;;;;;13.00;7.10;;;14.90;97.70;;;;;;6203299;28;20556;-62
2021/09/09 06:26:15;;;;;;;9.80;7.97;;;15.30;97.00;;;;;;6204182;28;20448;-62
2021/09/09 06:29:19;;;;;;;9.13;7.00;;;15.80;96.50;;;;;;6204664;28;20456;-62
2021/09/09 06:32:24;;;;;;;7.90;6.20;;;17.30;95.80;;;;;;6204436;28;20473;-63
2021/09/09 06:35:29;;;;;;;10.83;7.30;;;19.30;92.50;;;;;;6204165;28;20449;-62
2021/09/09 06:38:32;;;;;;;9.77;7.37;;;21.40;86.00;;;;;;6203780;28;20229;-62
2021/09/09 06:41:35;;;;;;;11.93;7.60;;;23.00;75.60;;;;;;6203617;28;20234;-62
2021/09/09 06:44:39;;;;;;;9.10;7.17;;;24.20;67.30;;;;;;6204188;28;20689;-62
2021/09/09 06:47:43;;;;;;;15.60;8.60;;;25.50;60.40;;;;;;6203247;28;20674;-62
2021/09/09 06:50:46;;;;;;;11.63;7.43;;;26.70;55.10;;;;;;6203720;28;20244;-62
2021/09/09 06:53:49;;;;;;;9.47;7.30;;;27.20;51.60;;;;;;6203964;28;20291;-63
2021/09/09 06:56:53;;;;;;;9.67;7.70;;;27.90;49.70;;;;;;6203385;28;20236;-63
2021/09/09 06:59:56;;;;;;;9.70;7.80;;;28.80;47.20;;;;;;6203931;28;20239;-62
2021/09/09 07:03:00;;;;;;;12.47;7.20;;;29.40;45.40;;;;;;6202995;28;20235;-63
2021/09/09 07:06:04;;;;;;;7.97;7.20;;;30.30;43.20;;;;;;6203475;28;20229;-63
2021/09/09 07:09:07;;;;;;;8.87;8.00;;;31.40;41.80;;;;;;6202877;28;20677;-63
2021/09/09 07:12:10;;;;;;;11.63;8.30;;;32.30;39.20;;;;;;6201272;28;20299;-63
2021/09/09 07:15:13;;;;;;;8.63;6.65;;;33.40;37.70;;;;;;6203098;28;20295;-63
2021/09/09 07:18:18;;;;;;;7.78;6.70;;;34.20;35.70;;;;;;6202680;28;20243;-63
2021/09/09 07:21:21;;;;;;;11.45;7.05;;;35.00;34.00;;;;;;6202363;28;20698;-63
2021/09/09 07:24:24;;;;;;;9.45;6.72;;;36.10;31.60;;;;;;6198190;28;20232;-63
2021/09/09 07:27:27;;;;;;;8.82;5.95;;;36.70;30.50;;;;;;6202625;28;20299;-64
2021/09/09 07:30:32;;;;;;;7.60;6.82;;;37.40;29.70;;;;;;6202520;28;20237;-63
2021/09/09 07:33:38;;;;;;;8.73;6.47;;;38.30;28.90;;;;;;6202073;28;20227;-62
2021/09/09 07:36:42;;;;;;;8.98;7.10;;;39.20;27.90;;;;;;6202593;28;20292;-62
2021/09/09 07:39:45;;;;;;;6.50;5.75;;;40.10;27.10;;;;;;6202944;28;20251;-63
2021/09/09 07:42:48;;;;;;;6.45;5.85;;;40.90;25.90;;;;;;6202152;28;20233;-63
2021/09/09 07:45:51;;;;;;;9.80;6.28;;;41.80;25.10;;;;;;6202541;28;20262;-63
2021/09/09 07:48:55;;;;;;;5.93;5.18;;;42.30;24.00;;;;;;6202440;28;20235;-63
2021/09/09 07:51:59;;;;;;;6.65;5.38;;;42.90;23.80;;;;;;6201807;28;20280;-63
2021/09/09 07:55:02;;;;;;;6.53;5.50;;;43.10;23.40;;;;;;6194629;28;20221;-63
2021/09/09 07:58:06;;;;;;;5.95;5.35;;;43.30;22.80;;;;;;6184182;28;20236;-63
2021/09/09 08:01:09;;;;;;;8.70;5.90;;;43.70;22.40;;;;;;6193683;28;20256;-64
2021/09/09 08:04:16;;;;;;;7.22;5.38;;;44.30;22.40;;;;;;6201031;28;20708;-62
2021/09/09 08:07:19;;;;;;;5.20;4.80;;;45.00;21.70;;;;;;6201961;28;20238;-64
2021/09/09 08:10:23;;;;;;;7.32;6.63;;;45.50;20.90;;;;;;6194265;28;20235;-62
2021/09/09 08:13:26;;;;;;;6.20;5.68;;;45.70;20.70;;;;;;6187443;28;20230;-63
2021/09/09 08:16:29;;;;;;;8.43;6.18;;;46.30;20.40;;;;;;6177159;28;20297;-64
2021/09/09 08:19:34;;;;;;;7.32;6.05;;;46.70;20.00;;;;;;6177194;28;20362;-63
2021/09/09 08:22:37;;;;;;;10.95;5.85;;;47.40;19.70;;;;;;6177034;28;20684;-65
2021/09/09 08:25:40;;;;;;;6.05;5.13;;;48.20;19.40;;;;;;6176760;28;20253;-65
2021/09/09 08:28:45;;;;;;;6.18;5.57;;;48.80;19.00;;;;;;6182907;28;20218;-64
2021/09/09 08:31:49;;;;;;;5.68;5.18;;;49.50;18.80;;;;;;6196720;28;20241;-63
2021/09/09 08:34:54;;;;;;;8.63;5.30;;;50.30;18.30;;;;;;6204765;28;20239;-63
2021/09/09 08:37:58;;;;;;;8.25;5.13;;;51.00;17.70;;;;;;6225344;28;20616;-64
2021/09/09 08:41:02;;;;;;;6.57;4.82;;;51.70;17.20;;;;;;6225560;28;20232;-65
2021/09/09 08:44:05;;;;;;;5.10;4.60;;;52.20;16.90;;;;;;6214287;28;20233;-64
2021/09/09 08:47:10;;;;;;;6.32;4.55;;;52.60;16.30;;;;;;6199474;28;20220;-65
2021/09/09 08:50:18;;;;;;;5.13;4.72;;;53.30;15.80;;;;;;6205990;28;20227;-63
2021/09/09 08:53:23;;;;;;;5.40;4.45;;;53.10;15.70;;;;;;6198853;28;20211;-70
2021/09/09 08:56:26;;;;;;;4.80;4.40;;;52.60;15.80;;;;;;6181778;28;20201;-64
2021/09/09 08:59:29;;;;;;;7.10;5.25;;;52.30;15.90;;;;;;6190720;28;20240;-64
2021/09/09 09:02:46;;;;;;;5.15;4.65;;;52.50;15.70;;;;;;6188044;28;20570;-65
2021/09/09 09:05:51;;;;;;;4.90;3.78;;;52.50;15.30;;;;;;6196271;28;20683;-63
2021/09/09 09:08:55;;;;;;;5.13;4.18;;;52.60;15.20;;;;;;6205268;28;20231;-63
2021/09/09 09:11:59;;;;;;;5.53;4.50;;;52.80;15.60;;;;;;6205231;28;20236;-63
2021/09/09 09:15:14;;;;;;;5.03;4.63;;;54.00;15.10;;;;;;6205409;28;20239;-64
2021/09/09 09:18:20;;;;;;;6.18;4.57;;;54.70;14.60;;;;;;6202866;28;20261;-63
2021/09/09 09:21:25;;;;;;;5.90;4.40;;;55.30;14.20;;;;;;6195795;28;20222;-66
2021/09/09 09:24:33;;;;;;;9.60;4.80;;;55.30;14.10;;;;;;6182412;28;20307;-63
2021/09/09 09:27:45;;;;;;;5.00;4.60;;;55.80;13.90;;;;;;6180728;28;20567;-65
2021/09/09 09:31:03;;;;;;;7.88;4.82;;;55.90;13.80;;;;;;6198815;28;20688;-65
2021/09/09 09:34:09;;;;;;;4.85;4.30;;;55.90;13.70;;;;;;6187211;28;20572;-65
2021/09/09 09:37:21;;;;;;;4.45;4.05;;;55.60;13.50;;;;;;6197903;28;20236;-66
2021/09/09 09:40:27;;;;;;;8.65;7.95;;;56.10;13.20;;;;;;6194097;28;20232;-66
2021/09/09 09:43:30;;;;;;;9.63;8.75;;;56.00;13.30;;;;;;6204556;28;20236;-66
2021/09/09 09:46:38;;;;;;;6.72;6.15;;;55.40;13.30;;;;;;6204751;28;20225;-65
2021/09/09 09:49:43;;;;;;;4.22;3.63;;;55.70;13.50;;;;;;6204346;28;20229;-66
2021/09/09 09:53:16;;;;;;;6.60;3.80;;;54.70;12.90;;;;;;6196853;28;20711;-65
2021/09/09 09:56:34;;;;;;;4.53;3.88;;;51.60;13.90;;;;;;6202333;28;20229;-63
2021/09/09 09:59:37;;;;;;;8.25;3.90;;;47.70;15.90;;;;;;6204229;28;20230;-64
2021/09/09 10:02:41;;;;;;;4.60;4.20;;;46.80;16.80;;;;;;6204075;28;20666;-64
2021/09/09 10:05:46;;;;;;;4.40;4.00;;;44.60;17.40;;;;;;6204187;28;20231;-64
2021/09/09 10:08:51;;;;;;;4.47;3.80;;;42.90;18.50;;;;;;6204034;28;20237;-64
2021/09/09 10:11:54;;;;;;;10.63;4.20;;;42.00;19.40;;;;;;6204015;28;20244;-64
2021/09/09 10:15:00;;;;;;;4.68;3.97;;;41.00;19.90;;;;;;6201173;28;20236;-65
2021/09/09 10:18:03;;;;;;;4.63;4.22;;;39.10;19.70;;;;;;6190487;28;20574;-65
2021/09/09 10:21:06;;;;;;;4.97;4.47;;;37.80;21.90;;;;;;6191756;28;20248;-65
2021/09/09 10:24:13;;;;;;;5.80;4.13;;;36.80;22.90;;;;;;6195609;28;20256;-64
2021/09/09 10:27:26;;;;;;;4.97;4.57;;;34.50;24.40;;;;;;6198177;28;20282;-64
2021/09/09 10:30:29;;;;;;;4.43;3.72;;;33.80;25.50;;;;;;6199431;28;20256;-65
2021/09/09 10:33:33;;;;;;;5.30;3.58;;;33.30;25.50;;;;;;6200997;28;20233;-64
2021/09/09 10:36:45;;;;;;;4.40;3.65;;;32.50;26.40;;;;;;6184967;28;20221;-64
2021/09/09 10:39:58;;;;;;;6.35;4.22;;;31.80;26.60;;;;;;6192075;28;20237;-64
2021/09/09 10:43:04;;;;;;;5.30;3.85;;;31.50;27.30;;;;;;6189370;28;20392;-64
2021/09/09 10:46:11;;;;;;;3.85;3.47;;;31.20;27.90;;;;;;6188550;28;20213;-64
2021/09/09 10:49:19;;;;;;;6.30;3.50;;;30.50;28.70;;;;;;6200457;28;20312;-64
2021/09/09 10:52:22;;;;;;;8.60;4.20;;;29.70;29.50;;;;;;6203908;28;20575;-64
2021/09/09 10:55:28;;;;;;;4.67;3.80;;;29.10;30.60;;;;;;6199879;28;20226;-64
2021/09/09 10:58:31;;;;;;;5.53;4.43;;;28.50;31.70;;;;;;6179077;28;20238;-64
2021/09/09 11:01:34;;;;;;;6.20;4.17;;;28.80;32.90;;;;;;6178240;28;20296;-64
2021/09/09 11:04:38;;;;;;;7.80;3.80;;;29.00;31.40;;;;;;6178555;28;20324;-64
2021/09/09 11:07:42;;;;;;;5.53;4.10;;;29.20;30.90;;;;;;6194383;28;20595;-64
2021/09/09 11:10:48;;;;;;;5.20;3.53;;;29.20;30.50;;;;;;6202205;28;20259;-64
2021/09/09 11:13:57;;;;;;;5.30;4.37;;;29.30;30.70;;;;;;6202626;28;20654;-64
2021/09/09 11:17:00;;;;;;;5.60;4.60;;;29.30;31.00;;;;;;6202139;28;20240;-64
2021/09/09 11:20:07;;;;;;;4.47;4.07;;;29.40;31.00;;;;;;6199579;28;20220;-65
2021/09/09 11:23:11;;;;;;;6.10;4.40;;;29.30;31.00;;;;;;6193323;28;20601;-65
2021/09/09 11:26:19;;;;;;;3.80;3.50;;;29.40;31.50;;;;;;6188228;28;20229;-64
2021/09/09 11:29:23;;;;;;;7.10;4.10;;;29.50;31.70;;;;;;6191245;28;20583;-64
2021/09/09 11:32:26;;;;;;;5.57;4.33;;;29.70;30.70;;;;;;6191132;28;20232;-64
2021/09/09 11:35:30;;;;;;;4.60;3.97;;;29.70;30.70;;;;;;6189414;28;20194;-64
2021/09/09 11:38:33;;;;;;;4.70;4.10;;;29.70;31.50;;;;;;6188086;28;20228;-65
2021/09/09 11:41:40;;;;;;;8.53;4.50;;;29.70;31.80;;;;;;6184811;28;20239;-65
2021/09/09 11:44:43;;;;;;;6.33;4.47;;;29.50;32.00;;;;;;6191427;28;20229;-64
2021/09/09 11:47:47;;;;;;;7.13;4.60;;;29.70;32.40;;;;;;6190468;28;20228;-63
2021/09/09 11:50:50;;;;;;;4.70;4.30;;;29.50;31.90;;;;;;6191566;28;20665;-63
2021/09/09 11:53:53;;;;;;;4.83;3.70;;;29.70;31.80;;;;;;6195990;28;20236;-64
2021/09/09 11:57:06;;;;;;;4.37;3.93;;;29.70;32.00;;;;;;6188088;28;20241;-64
2021/09/09 12:00:13;;;;;;;6.53;4.50;;;29.70;31.90;;;;;;6200753;28;20241;-64
2021/09/09 12:03:17;;;;;;;5.10;4.20;;;29.40;32.40;;;;;;6201846;28;20229;-65
2021/09/09 12:06:22;;;;;;;4.13;3.70;;;29.20;32.60;;;;;;6201861;28;20569;-66
2021/09/09 12:09:26;;;;;;;4.17;3.73;;;29.30;32.40;;;;;;6201868;28;20316;-65
2021/09/09 12:12:34;;;;;;;4.97;3.53;;;29.30;32.30;;;;;;6198759;28;20229;-64
2021/09/09 12:15:37;;;;;;;3.93;3.63;;;29.40;32.50;;;;;;6201166;28;20685;-64
2021/09/09 12:18:41;;;;;;;5.50;4.93;;;29.70;32.50;;;;;;6201536;28;20225;-65
2021/09/09 12:21:54;;;;;;;5.07;4.17;;;29.80;32.90;;;;;;6200399;28;20248;-63
2021/09/09 12:24:57;;;;;;;6.90;4.67;;;29.90;33.30;;;;;;6201356;28;20237;-65
2021/09/09 12:28:08;;;;;;;4.17;3.77;;;30.00;33.00;;;;;;6201546;28;20295;-62
2021/09/09 12:31:12;;;;;;;9.37;4.77;;;30.00;33.00;;;;;;6200847;28;20244;-62
2021/09/09 12:34:16;;;;;;;5.30;4.70;;;29.80;33.00;;;;;;6198555;28;20307;-63
2021/09/09 12:37:19;;;;;;;6.00;4.30;;;29.40;33.40;;;;;;6201053;28;20240;-61
2021/09/09 12:40:41;;;;;;;5.30;3.97;;;29.70;33.20;;;;;;6200659;28;20236;-64
2021/09/09 12:43:50;;;;;;;7.13;4.30;;;29.60;33.60;;;;;;6200408;28;20229;-62
2021/09/09 12:46:54;;;;;;;8.20;4.67;;;29.50;34.30;;;;;;6191893;28;20232;-64
2021/09/09 12:49:57;;;;;;;5.07;4.20;;;29.50;34.10;;;;;;6200940;28;20248;-63
2021/09/09 12:53:00;;;;;;;6.93;4.50;;;29.10;34.50;;;;;;6204258;28;20566;-65
2021/09/09 12:56:06;;;;;;;4.77;3.90;;;28.60;35.00;;;;;;6200745;28;20224;-62
2021/09/09 12:59:10;;;;;;;5.87;4.83;;;28.60;35.40;;;;;;6200632;28;20719;-62
2021/09/09 13:02:13;;;;;;;6.70;5.37;;;28.50;35.60;;;;;;6175960;28;20233;-63
2021/09/09 13:05:17;;;;;;;5.77;4.20;;;28.70;35.80;;;;;;6224925;28;20228;-63
2021/09/09 13:08:20;;;;;;;5.20;4.70;;;28.50;35.90;;;;;;6225209;28;20227;-62
2021/09/09 13:11:23;;;;;;;5.83;5.13;;;28.20;36.90;;;;;;6224974;28;20243;-64
2021/09/09 13:14:28;;;;;;;5.20;4.70;;;28.10;37.30;;;;;;6225002;28;20204;-63
2021/09/09 13:17:31;;;;;;;4.67;4.27;;;27.30;38.50;;;;;;6224999;28;20209;-62
2021/09/09 13:20:35;;;;;;;4.93;4.50;;;27.30;38.70;;;;;;6225066;28;20244;-62
2021/09/09 13:23:39;;;;;;;5.33;4.60;;;27.70;38.10;;;;;;6225300;28;20228;-64
2021/09/09 13:26:43;;;;;;;4.30;3.90;;;28.10;37.80;;;;;;6224279;28;20228;-61
2021/09/09 13:29:47;;;;;;;6.73;4.47;;;28.00;37.20;;;;;;6225081;28;20228;-65
2021/09/09 13:32:50;;;;;;;4.83;4.27;;;28.00;37.40;;;;;;6227258;28;20227;-64
2021/09/09 13:35:53;;;;;;;5.50;4.27;;;28.10;37.20;;;;;;6229566;28;20600;-63
2021/09/09 13:38:57;;;;;;;4.70;4.20;;;28.00;37.00;;;;;;6229076;28;20683;-62
2021/09/09 13:42:00;;;;;;;5.03;4.30;;;27.90;37.10;;;;;;6229755;28;20672;-63
2021/09/09 13:45:07;;;;;;;5.97;4.70;;;27.90;37.10;;;;;;6229260;28;20242;-62
2021/09/09 13:48:10;;;;;;;5.73;4.03;;;27.80;37.30;;;;;;6225312;28;20228;-63
2021/09/09 13:51:14;;;;;;;5.73;3.87;;;27.70;37.50;;;;;;6228541;28;20247;-64
2021/09/09 13:54:17;;;;;;;4.73;4.20;;;27.40;38.00;;;;;;6228284;28;20228;-63
2021/09/09 13:57:20;;;;;;;5.40;4.70;;;27.50;37.80;;;;;;6228552;28;20676;-62
2021/09/09 14:00:25;;;;;;;6.50;4.53;;;27.50;37.90;;;;;;6228332;28;20610;-63
2021/09/09 14:03:28;;;;;;;5.10;4.40;;;27.10;37.60;;;;;;6228670;28;20232;-61
2021/09/09 14:06:35;;;;;;;4.80;3.97;;;26.90;37.60;;;;;;6228452;28;20235;-64
2021/09/09 14:09:38;;;;;;;7.30;4.43;;;26.90;37.60;;;;;;6228307;28;20244;-62
2021/09/09 14:12:41;;;;;;;6.50;4.03;;;26.50;37.90;;;;;;6227871;28;20236;-65
2021/09/09 14:15:46;;;;;;;4.40;4.00;;;26.60;37.90;;;;;;6223906;28;20221;-66
2021/09/09 14:18:49;;;;;;;4.03;3.73;;;26.70;38.40;;;;;;6228172;28;20230;-64
2021/09/09 14:21:52;;;;;;;5.30;4.90;;;26.70;39.00;;;;;;6228376;28;20236;-64
2021/09/09 14:24:56;;;;;;;6.83;4.00;;;26.80;39.20;;;;;;6227765;28;20224;-67
2021/09/09 14:27:59;;;;;;;5.00;4.30;;;26.60;39.60;;;;;;6227190;28;20259;-62
2021/09/09 14:31:04;;;;;;;5.00;3.83;;;26.40;39.70;;;;;;6227728;28;20243;-64
2021/09/09 14:34:07;;;;;;;4.50;4.10;;;26.30;40.10;;;;;;6227623;28;20254;-62
2021/09/09 14:37:12;;;;;;;4.57;4.17;;;26.30;39.90;;;;;;6228155;28;20228;-63
2021/09/09 14:40:15;;;;;;;3.97;3.57;;;26.30;39.80;;;;;;6227696;28;20247;-61
2021/09/09 14:43:18;;;;;;;4.80;3.80;;;26.30;39.80;;;;;;6226932;28;20236;-63
2021/09/09 14:46:23;;;;;;;8.53;5.30;;;26.30;40.00;;;;;;6226990;28;20240;-63
2021/09/09 14:49:26;;;;;;;4.57;3.80;;;26.30;40.20;;;;;;6227511;28;20243;-63
2021/09/09 14:52:29;;;;;;;8.97;3.67;;;26.20;39.90;;;;;;6215469;28;20238;-63
2021/09/09 14:55:32;;;;;;;4.70;4.30;;;26.10;39.70;;;;;;6227524;28;20235;-62
2021/09/09 14:58:35;;;;;;;4.73;3.90;;;26.00;39.60;;;;;;6226480;28;20573;-62
2021/09/09 15:01:40;;;;;;;6.33;4.00;;;26.00;39.60;;;;;;6226959;28;20255;-62
2021/09/09 15:04:44;;;;;;;6.27;4.90;;;25.90;39.30;;;;;;6221631;28;20229;-62
2021/09/09 15:07:47;;;;;;;4.60;3.77;;;25.90;40.00;;;;;;6211148;28;20251;-63
2021/09/09 15:10:50;;;;;;;5.23;4.13;;;26.00;40.40;;;;;;6227012;28;20240;-63
2021/09/09 15:13:53;;;;;;;5.50;3.67;;;26.00;40.40;;;;;;6216169;28;20347;-63
2021/09/09 15:16:58;;;;;;;4.83;4.33;;;25.80;39.40;;;;;;6213313;28;20796;-63
2021/09/09 15:20:01;;;;;;;4.93;3.73;;;25.80;39.50;;;;;;6212418;28;20272;-63
2021/09/09 15:23:04;;;;;;;4.57;4.17;;;25.80;39.30;;;;;;6212732;28;20225;-63
2021/09/09 15:26:07;;;;;;;6.47;4.00;;;25.90;39.70;;;;;;6214202;28;20650;-63
2021/09/09 15:29:10;;;;;;;4.23;3.83;;;26.00;39.80;;;;;;6215175;28;20232;-62
2021/09/09 15:32:15;;;;;;;8.70;3.73;;;26.10;39.40;;;;;;6212989;28;20676;-63
2021/09/09 15:35:18;;;;;;;7.23;3.93;;;25.90;39.50;;;;;;6225351;28;20216;-63
2021/09/09 15:38:21;;;;;;;3.77;3.30;;;25.80;39.80;;;;;;6225226;28;20219;-63
2021/09/09 15:41:24;;;;;;;4.27;3.87;;;25.70;39.80;;;;;;6225174;28;20545;-63
2021/09/09 15:44:27;;;;;;;6.70;4.00;;;25.60;40.10;;;;;;6224978;28;20224;-63
2021/09/09 15:47:32;;;;;;;4.20;3.80;;;25.70;40.90;;;;;;6225442;28;20228;-62
2021/09/09 15:50:35;;;;;;;3.50;3.20;;;25.70;40.50;;;;;;6226268;28;20227;-63
2021/09/09 15:53:38;;;;;;;5.37;4.37;;;25.60;40.80;;;;;;6228307;28;20224;-63
2021/09/09 15:56:51;;;;;;;3.50;2.97;;;25.60;40.30;;;;;;6216760;28;20232;-63